Time;durP1;ratioP1;P1;durP2;ratioP2;P2;SDS_P1;SDS_P2;PMS_P1;PMS_P2;Temp;Humidity;BMP_temperature;BMP_pressure;BME280_temperature;BME280_humidity;BME280_pressure;Samples;Min_cycle;Max_cycle;Signal;HPM_P1;HPM_P2
2023/01/22 00:00:04;;;;;;;18.70;10.27;;;;;;;13.50;50.41;103588.50;5125307;27;20166;-35
2023/01/22 00:02:34;;;;;;;18.88;10.18;;;;;;;13.49;50.88;103581.47;5125746;27;20047;-34
2023/01/22 00:05:01;;;;;;;21.30;11.30;;;;;;;13.50;50.62;103579.66;5120543;27;20051;-35
2023/01/22 00:07:27;;;;;;;20.65;12.10;;;;;;;13.48;50.68;103577.06;5120490;27;20047;-35
2023/01/22 00:09:54;;;;;;;19.77;10.93;;;;;;;13.50;50.61;103577.00;5125527;27;20065;-35
2023/01/22 00:12:21;;;;;;;20.52;11.25;;;;;;;13.49;50.63;103569.94;5123295;27;20054;-35
2023/01/22 00:14:48;;;;;;;18.92;11.32;;;;;;;13.51;50.51;103576.09;5125046;27;20047;-34
2023/01/22 00:17:15;;;;;;;18.95;11.18;;;;;;;13.51;50.73;103576.09;5126512;27;20343;-36
2023/01/22 00:19:42;;;;;;;20.92;11.75;;;;;;;13.52;51.00;103581.34;5126196;27;20122;-34
2023/01/22 00:22:10;;;;;;;18.77;10.57;;;;;;;13.52;51.11;103581.34;5122991;27;20165;-34
2023/01/22 00:24:38;;;;;;;19.73;11.07;;;;;;;13.53;50.90;103564.44;5122904;27;20052;-34
2023/01/22 00:27:05;;;;;;;21.02;11.48;;;;;;;13.54;51.17;103562.63;5127203;27;20051;-36
2023/01/22 00:29:32;;;;;;;20.95;12.05;;;;;;;13.56;50.59;103558.13;5128307;27;20051;-37
2023/01/22 00:31:58;;;;;;;19.20;10.68;;;;;;;13.55;50.88;103561.72;5125554;27;20083;-35
2023/01/22 00:34:25;;;;;;;21.38;11.80;;;;;;;13.56;50.60;103561.66;5127116;27;20422;-34
2023/01/22 00:36:51;;;;;;;20.80;11.45;;;;;;;13.57;51.12;103554.53;5122650;27;20224;-34
2023/01/22 00:39:20;;;;;;;18.95;11.43;;;;;;;13.56;50.89;103569.66;5125435;27;20048;-37
2023/01/22 00:41:48;;;;;;;20.70;11.05;;;;;;;13.58;50.67;103558.91;5126604;27;20051;-37
2023/01/22 00:44:15;;;;;;;20.90;12.15;;;;;;;13.57;50.97;103560.72;5124442;27;20457;-35
2023/01/22 00:46:42;;;;;;;22.55;12.35;;;;;;;13.58;50.93;103557.13;5123577;27;20052;-35
2023/01/22 00:49:08;;;;;;;23.08;12.15;;;;;;;13.58;51.04;103556.25;5125564;27;20043;-34
2023/01/22 00:51:35;;;;;;;20.73;12.27;;;;;;;13.58;51.02;103553.59;5126872;27;20074;-35
2023/01/22 00:54:02;;;;;;;20.00;11.85;;;;;;;13.57;51.16;103555.38;5119171;27;20062;-34
2023/01/22 00:56:28;;;;;;;20.50;11.40;;;;;;;13.58;50.87;103558.91;5125245;27;20066;-35
2023/01/22 00:58:55;;;;;;;22.23;12.40;;;;;;;13.57;51.14;103555.38;5125021;27;20053;-34
2023/01/22 01:01:24;;;;;;;21.60;11.75;;;;;;;13.57;51.08;103554.53;5126410;27;20043;-35
2023/01/22 01:03:50;;;;;;;19.67;11.50;;;;;;;13.57;51.08;103554.53;5125795;27;20055;-34
2023/01/22 01:06:20;;;;;;;21.40;12.43;;;;;;;13.56;51.00;103551.00;5127042;27;20078;-35
2023/01/22 01:08:47;;;;;;;23.88;12.50;;;;;;;13.57;51.24;103546.53;5123862;27;20048;-34
2023/01/22 01:11:21;;;;;;;21.35;11.98;;;;;;;13.57;51.63;103549.19;5124766;27;20051;-34
2023/01/22 01:13:50;;;;;;;20.23;11.38;;;;;;;13.57;51.26;103551.84;5126203;27;20089;-35
2023/01/22 01:16:19;;;;;;;19.77;11.90;;;;;;;13.57;51.44;103549.19;5122696;27;20051;-35
2023/01/22 01:18:47;;;;;;;21.60;11.77;;;;;;;13.58;51.35;103545.59;5120175;27;20067;-34
2023/01/22 01:21:14;;;;;;;20.83;12.10;;;;;;;13.58;51.55;103538.47;5123050;27;20134;-34
2023/01/22 01:23:41;;;;;;;18.83;11.23;;;;;;;13.58;51.30;103535.81;5124608;27;20465;-35
2023/01/22 01:26:11;;;;;;;20.38;12.00;;;;;;;13.61;51.03;103539.28;5123717;27;20047;-36
2023/01/22 01:28:40;;;;;;;20.85;11.73;;;;;;;13.61;51.26;103534.81;5124645;27;20055;-34
2023/01/22 01:31:10;;;;;;;18.83;11.05;;;;;;;13.61;51.51;103524.16;5127050;27;20054;-35
2023/01/22 01:33:37;;;;;;;17.67;10.77;;;;;;;13.63;51.41;103526.75;5126603;27;20043;-37
2023/01/22 01:36:25;;;;;;;18.92;11.63;;;;;;;13.62;51.23;103525.91;5122025;27;20058;-34
2023/01/22 01:39:12;;;;;;;20.05;11.35;;;;;;;13.65;51.04;103516.94;5124913;27;20040;-35
2023/01/22 01:41:38;;;;;;;19.73;11.15;;;;;;;13.64;51.17;103518.72;5128230;27;20338;-35
2023/01/22 01:44:16;;;;;;;18.45;10.85;;;;;;;13.64;51.31;103510.72;5131910;27;20134;-34
2023/01/22 01:46:50;;;;;;;20.08;11.52;;;;;;;13.64;51.27;103510.72;5122456;27;20134;-34
2023/01/22 01:49:43;;;;;;;18.15;10.88;;;;;;;13.63;51.40;103500.13;5121432;27;20039;-34
2023/01/22 01:52:11;;;;;;;19.08;10.32;;;;;;;13.64;51.22;103502.75;5127012;27;20039;-34
2023/01/22 01:54:41;;;;;;;19.88;11.20;;;;;;;13.63;51.54;103505.44;5122870;27;20043;-35
2023/01/22 01:57:13;;;;;;;19.15;11.43;;;;;;;13.62;51.21;103509.91;5126431;27;20054;-34
2023/01/22 01:59:41;;;;;;;20.85;11.27;;;;;;;13.62;51.06;103509.03;5123044;27;20123;-34
2023/01/22 02:02:08;;;;;;;19.27;11.10;;;;;;;13.62;51.20;103506.38;5123615;27;20083;-34
2023/01/22 02:04:35;;;;;;;18.10;10.75;;;;;;;13.61;51.30;103516.19;5120166;27;20335;-34
2023/01/22 02:07:03;;;;;;;19.95;10.95;;;;;;;13.61;51.19;103507.31;5122090;27;20047;-34
2023/01/22 02:09:31;;;;;;;17.73;9.82;;;;;;;13.61;51.07;103501.97;5118355;27;20494;-35
2023/01/22 02:11:57;;;;;;;18.02;11.00;;;;;;;13.59;51.42;103504.72;5124103;27;20074;-34
2023/01/22 02:14:32;;;;;;;16.30;9.50;;;;;;;13.59;51.51;103494.06;5128154;27;20440;-35
2023/01/22 02:17:07;;;;;;;17.98;10.13;;;;;;;13.58;51.64;103495.84;5118946;27;20051;-35
2023/01/22 02:19:34;;;;;;;17.95;10.13;;;;;;;13.60;51.17;103498.47;5122894;27;20330;-35
2023/01/22 02:22:00;;;;;;;16.17;9.88;;;;;;;13.60;51.27;103500.25;5124323;27;20122;-35
2023/01/22 02:24:30;;;;;;;17.70;10.55;;;;;;;13.60;51.25;103498.47;5121783;27;20058;-35
2023/01/22 02:26:56;;;;;;;17.00;10.20;;;;;;;13.60;51.35;103500.25;5124498;27;20084;-35
2023/01/22 02:29:25;;;;;;;18.27;11.13;;;;;;;13.61;51.29;103492.19;5117719;28;20130;-36
2023/01/22 02:31:52;;;;;;;17.23;10.18;;;;;;;13.61;51.33;103500.19;5124843;27;20050;-35
2023/01/22 02:34:23;;;;;;;17.48;10.27;;;;;;;13.63;51.33;103502.78;5119630;27;20058;-35
2023/01/22 02:36:50;;;;;;;16.05;9.52;;;;;;;13.64;51.15;103497.41;5121046;27;20043;-35
2023/01/22 02:39:17;;;;;;;16.00;9.27;;;;;;;13.63;51.38;103490.34;5116483;27;20423;-35
2023/01/22 02:41:44;;;;;;;16.10;9.93;;;;;;;13.65;51.29;103498.28;5124450;27;20434;-35
2023/01/22 02:44:10;;;;;;;17.17;9.52;;;;;;;13.65;51.43;103490.28;5126747;27;20052;-35
2023/01/22 02:46:37;;;;;;;16.45;9.48;;;;;;;13.65;51.41;103487.63;5121521;28;20054;-35
2023/01/22 02:49:04;;;;;;;16.98;9.13;;;;;;;13.66;51.44;103486.69;5123981;27;20058;-35
2023/01/22 02:51:30;;;;;;;16.67;9.60;;;;;;;13.66;51.47;103479.53;5125215;27;20048;-34
2023/01/22 02:53:57;;;;;;;15.13;9.35;;;;;;;13.66;51.42;103484.00;5126249;27;20063;-35
2023/01/22 02:56:24;;;;;;;16.15;8.90;;;;;;;13.66;51.65;103482.22;5129332;28;20057;-35
2023/01/22 02:58:51;;;;;;;16.83;9.68;;;;;;;13.66;51.53;103479.53;5127405;28;20057;-35
2023/01/22 03:01:23;;;;;;;14.48;8.63;;;;;;;13.65;51.38;103469.81;5128666;27;20516;-38
2023/01/22 03:03:52;;;;;;;15.27;8.82;;;;;;;13.65;51.42;103471.63;5127173;28;20080;-35
2023/01/22 03:06:20;;;;;;;14.88;8.80;;;;;;;13.65;51.62;103476.94;5121081;28;20039;-35
2023/01/22 03:08:49;;;;;;;14.48;8.70;;;;;;;13.63;51.11;103474.34;5119576;28;20079;-35
2023/01/22 03:11:15;;;;;;;15.02;9.55;;;;;;;13.64;51.50;103481.41;5122223;28;20056;-35
2023/01/22 03:21:57;;;;;;;12.60;7.82;;;;;;;13.62;51.60;103469.94;5124824;28;20048;-38
2023/01/22 03:24:23;;;;;;;13.40;7.72;;;;;;;13.62;51.25;103469.94;5117418;28;20426;-38
2023/01/22 03:26:50;;;;;;;13.45;7.85;;;;;;;13.62;51.27;103469.94;5120906;28;20390;-35
2023/01/22 03:29:17;;;;;;;14.15;7.85;;;;;;;13.63;51.12;103460.13;5121990;28;20059;-35
2023/01/22 03:31:47;;;;;;;15.30;8.50;;;;;;;13.64;51.54;103464.56;5119423;28;20054;-35
2023/01/22 03:34:19;;;;;;;13.82;8.20;;;;;;;13.64;51.34;103461.91;5119544;28;20044;-35
2023/01/22 03:36:46;;;;;;;12.55;7.97;;;;;;;13.63;51.39;103455.72;5122962;28;20054;-36
2023/01/22 03:39:12;;;;;;;14.30;7.70;;;;;;;13.64;51.09;103456.56;5121491;27;20050;-38
2023/01/22 03:41:39;;;;;;;11.98;7.18;;;;;;;13.64;51.70;103456.56;5126228;27;20043;-35
2023/01/22 03:44:10;;;;;;;12.50;7.57;;;;;;;13.64;51.21;103454.78;5129317;27;20141;-35
2023/01/22 03:46:39;;;;;;;12.30;7.47;;;;;;;13.64;51.52;103454.78;5124769;27;20043;-35
2023/01/22 03:49:06;;;;;;;11.40;7.00;;;;;;;13.64;51.28;103445.91;5126711;27;20050;-35
2023/01/22 03:51:34;;;;;;;13.23;8.05;;;;;;;13.65;51.38;103448.50;5124782;27;20050;-35
2023/01/22 03:54:00;;;;;;;11.80;7.05;;;;;;;13.63;51.09;103452.16;5121359;27;20055;-35
2023/01/22 03:56:27;;;;;;;11.02;6.47;;;;;;;13.64;51.62;103451.25;5123068;27;20049;-35
2023/01/22 03:58:55;;;;;;;11.00;6.57;;;;;;;13.63;51.27;103452.16;5124559;27;20050;-35
2023/01/22 04:01:24;;;;;;;10.82;6.78;;;;;;;13.63;51.25;103454.81;5122095;27;20092;-35
2023/01/22 04:03:51;;;;;;;11.90;6.88;;;;;;;13.62;51.44;103458.41;5125068;27;20055;-36
2023/01/22 04:06:19;;;;;;;11.32;6.95;;;;;;;13.61;51.16;103456.69;5126574;27;20051;-35
2023/01/22 04:08:48;;;;;;;10.73;6.50;;;;;;;13.60;51.31;103452.28;5124524;27;20457;-35
2023/01/22 04:11:15;;;;;;;11.32;6.50;;;;;;;13.60;51.04;103453.16;5128440;27;20066;-36
2023/01/22 04:13:43;;;;;;;9.55;6.00;;;;;;;13.60;51.24;103449.63;5125609;27;20053;-35
2023/01/22 04:16:11;;;;;;;10.35;5.95;;;;;;;13.60;51.24;103455.81;5127836;27;20047;-35
2023/01/22 04:18:38;;;;;;;11.65;6.88;;;;;;;13.58;51.24;103453.19;5125252;27;20043;-35
2023/01/22 04:21:05;;;;;;;11.70;6.30;;;;;;;13.59;51.47;103451.44;5126187;27;20650;-35
2023/01/22 04:23:31;;;;;;;10.45;6.43;;;;;;;13.57;51.40;103454.13;5122517;27;20047;-35
2023/01/22 04:25:58;;;;;;;11.13;6.35;;;;;;;13.58;51.65;103452.34;5126442;27;20054;-35
2023/01/22 04:28:25;;;;;;;9.93;6.07;;;;;;;13.58;51.44;103461.19;5118883;27;20430;-35
2023/01/22 04:30:53;;;;;;;9.90;6.07;;;;;;;13.58;51.29;103460.31;5125602;27;20126;-35
2023/01/22 04:33:20;;;;;;;9.73;5.97;;;;;;;13.60;51.18;103457.63;5125059;27;20099;-34
2023/01/22 04:35:52;;;;;;;10.98;6.50;;;;;;;13.58;51.30;103455.84;5122433;27;20046;-36
2023/01/22 04:38:18;;;;;;;10.82;6.05;;;;;;;13.58;51.41;103461.19;5125139;27;20043;-35
2023/01/22 04:40:45;;;;;;;9.65;5.90;;;;;;;13.59;51.15;103459.41;5127700;27;22569;-37
2023/01/22 04:43:11;;;;;;;10.52;6.15;;;;;;;13.60;51.32;103462.94;5122843;27;20044;-34
2023/01/22 04:45:38;;;;;;;8.93;5.45;;;;;;;13.59;51.14;103462.09;5124375;27;20047;-34
2023/01/22 04:48:07;;;;;;;9.10;5.57;;;;;;;13.59;51.14;103456.75;5125867;27;20097;-36
2023/01/22 04:50:34;;;;;;;8.73;5.22;;;;;;;13.60;51.29;103457.63;5125630;27;20074;-35
2023/01/22 04:53:01;;;;;;;10.05;5.68;;;;;;;13.60;50.99;103457.63;5120598;27;20097;-35
2023/01/22 04:55:28;;;;;;;9.20;5.70;;;;;;;13.60;51.27;103457.63;5124439;27;20122;-35
2023/01/22 04:57:56;;;;;;;9.07;5.35;;;;;;;13.58;51.39;103455.84;5124252;27;20055;-34
2023/01/22 05:00:24;;;;;;;10.25;5.47;;;;;;;13.60;51.43;103458.47;5123958;27;20078;-34
2023/01/22 05:02:55;;;;;;;9.68;5.75;;;;;;;13.58;51.77;103457.66;5124255;27;20350;-35
2023/01/22 05:05:22;;;;;;;7.00;4.20;;;;;;;13.57;51.71;103454.13;5123828;27;20089;-35
2023/01/22 05:07:48;;;;;;;9.13;5.80;;;;;;;13.59;51.30;103456.75;5122069;27;20373;-35
2023/01/22 05:10:15;;;;;;;7.55;4.90;;;;;;;13.58;51.28;103455.84;5123470;27;20070;-35
2023/01/22 05:12:42;;;;;;;7.65;5.10;;;;;;;13.58;51.21;103460.31;5123166;27;20052;-35
2023/01/22 05:15:10;;;;;;;8.68;5.53;;;;;;;13.58;51.68;103450.53;5118765;27;20044;-35
2023/01/22 05:17:49;;;;;;;7.35;4.93;;;;;;;13.58;51.32;103455.84;5123276;27;20058;-35
2023/01/22 05:20:15;;;;;;;6.90;4.28;;;;;;;13.58;51.24;103453.19;5128227;27;20100;-36
2023/01/22 05:22:43;;;;;;;8.35;4.95;;;;;;;13.57;51.42;103455.94;5126554;27;20089;-35
2023/01/22 05:25:09;;;;;;;6.88;4.47;;;;;;;13.57;51.56;103458.59;5130399;27;20067;-35
2023/01/22 05:27:36;;;;;;;9.15;5.68;;;;;;;13.57;51.42;103462.13;5130312;27;20054;-35
2023/01/22 05:30:04;;;;;;;7.25;4.75;;;;;;;13.58;51.29;103465.66;5124593;27;20051;-35
2023/01/22 05:32:31;;;;;;;6.75;4.43;;;;;;;13.58;51.46;103463.00;5127661;27;20050;-35
2023/01/22 05:34:57;;;;;;;6.28;3.88;;;;;;;13.58;51.32;103465.66;5125503;27;20059;-38
2023/01/22 05:37:24;;;;;;;8.70;5.32;;;;;;;13.59;51.50;103470.06;5125285;27;20213;-35
2023/01/22 05:39:50;;;;;;;6.68;4.47;;;;;;;13.58;51.41;103466.53;5120019;27;20438;-35
2023/01/22 05:42:17;;;;;;;6.88;4.32;;;;;;;13.58;51.70;103461.19;5124725;27;20141;-35
2023/01/22 05:44:44;;;;;;;6.53;4.10;;;;;;;13.60;51.58;103463.81;5122394;27;20054;-35
2023/01/22 05:47:12;;;;;;;6.35;4.18;;;;;;;13.60;51.43;103466.47;5123464;27;20134;-35
2023/01/22 05:49:39;;;;;;;6.68;3.78;;;;;;;13.61;51.30;103462.00;5121795;27;20054;-34
2023/01/22 05:52:09;;;;;;;6.15;4.35;;;;;;;13.61;51.34;103475.34;5125649;27;20051;-34
2023/01/22 05:54:37;;;;;;;6.55;3.75;;;;;;;13.61;51.63;103465.53;5123954;27;20039;-34
2023/01/22 05:57:04;;;;;;;6.53;4.32;;;;;;;13.61;51.54;103468.22;5129245;27;20047;-34
2023/01/22 05:59:31;;;;;;;7.30;4.35;;;;;;;13.61;51.55;103465.53;5126167;27;20071;-34
2023/01/22 06:01:58;;;;;;;7.35;4.70;;;;;;;13.60;51.14;103471.81;5125162;27;20049;-34
2023/01/22 06:04:24;;;;;;;6.72;3.75;;;;;;;13.60;51.42;103474.47;5123903;27;20054;-34
2023/01/22 06:06:51;;;;;;;6.72;4.05;;;;;;;13.61;51.47;103488.66;5124664;27;20055;-34
2023/01/22 06:09:17;;;;;;;7.22;4.07;;;;;;;13.60;51.55;103481.59;5121065;27;20047;-34
2023/01/22 06:11:44;;;;;;;7.50;4.07;;;;;;;13.59;51.42;103475.41;5125482;27;20039;-35
2023/01/22 06:14:10;;;;;;;5.57;3.75;;;;;;;13.58;51.40;103481.63;5124757;27;20142;-35
2023/01/22 06:16:37;;;;;;;6.82;4.07;;;;;;;13.57;51.57;103471.91;5124131;27;20051;-36
2023/01/22 06:19:03;;;;;;;6.40;3.63;;;;;;;13.57;51.16;103483.44;5121311;27;20047;-35
2023/01/22 06:21:30;;;;;;;6.28;4.05;;;;;;;13.57;51.58;103485.25;5123859;27;20065;-34
2023/01/22 06:23:57;;;;;;;5.53;3.40;;;;;;;13.56;51.49;103472.84;5122116;27;20043;-35
2023/01/22 06:26:23;;;;;;;6.15;3.40;;;;;;;13.55;51.41;103487.97;5122149;27;20051;-35
2023/01/22 06:28:50;;;;;;;5.28;3.70;;;;;;;13.55;51.29;103487.13;5120911;27;20138;-35
2023/01/22 06:31:16;;;;;;;5.40;3.42;;;;;;;13.56;51.67;103480.84;5123007;27;20046;-35
2023/01/22 06:33:43;;;;;;;5.93;3.75;;;;;;;13.57;51.76;103490.56;5122181;27;20134;-35
2023/01/22 06:36:10;;;;;;;5.47;3.30;;;;;;;13.55;51.20;103487.97;5123112;27;20047;-34
2023/01/22 06:38:37;;;;;;;6.85;3.95;;;;;;;13.58;51.37;103486.97;5130218;27;20054;-35
2023/01/22 06:41:04;;;;;;;4.55;2.78;;;;;;;13.57;51.48;103488.78;5127078;27;20338;-35
2023/01/22 06:43:30;;;;;;;5.78;3.47;;;;;;;13.57;51.50;103488.78;5127904;27;20042;-35
2023/01/22 06:45:57;;;;;;;5.85;3.55;;;;;;;13.58;51.24;103490.50;5128859;27;20138;-33
2023/01/22 06:48:23;;;;;;;6.10;3.58;;;;;;;13.59;51.29;103488.72;5124333;28;20150;-36
2023/01/22 06:50:50;;;;;;;4.20;2.92;;;;;;;13.60;51.05;103490.47;5127026;28;20419;-36
2023/01/22 06:53:16;;;;;;;4.13;3.03;;;;;;;13.59;51.30;103478.06;5121388;27;20103;-36
2023/01/22 06:55:43;;;;;;;4.50;2.80;;;;;;;13.60;51.34;103477.13;5126530;28;20052;-36
2023/01/22 06:58:09;;;;;;;3.83;2.70;;;;;;;13.61;51.65;103480.66;5122658;28;20430;-36
2023/01/22 07:00:36;;;;;;;4.75;3.20;;;;;;;13.60;51.44;103478.94;5125032;28;20043;-36
2023/01/22 07:03:06;;;;;;;5.03;3.22;;;;;;;13.60;51.75;103476.28;5122777;28;20387;-36
2023/01/22 07:05:34;;;;;;;4.88;3.08;;;;;;;13.60;51.25;103478.94;5124850;28;20048;-37
2023/01/22 07:08:01;;;;;;;5.22;3.03;;;;;;;13.59;51.35;103480.75;5119940;28;20051;-36
2023/01/22 07:10:27;;;;;;;4.85;3.15;;;;;;;13.59;51.10;103483.41;5121727;28;20335;-36
2023/01/22 07:12:55;;;;;;;4.13;2.78;;;;;;;13.58;51.42;103487.84;5124930;28;20054;-36
2023/01/22 07:15:22;;;;;;;4.88;2.85;;;;;;;13.59;51.32;103491.41;5126615;27;20059;-36
2023/01/22 07:17:53;;;;;;;6.03;3.15;;;;;;;13.57;51.51;103485.25;5127956;27;20048;-36
2023/01/22 07:20:21;;;;;;;5.45;2.90;;;;;;;13.56;51.32;103488.84;5124797;27;20051;-36
2023/01/22 07:22:49;;;;;;;3.80;2.58;;;;;;;13.56;51.49;103489.72;5127230;27;20127;-34
2023/01/22 07:25:15;;;;;;;4.75;2.55;;;;;;;13.56;51.16;103491.50;5124502;27;20450;-36
2023/01/22 07:27:42;;;;;;;2.95;2.40;;;;;;;13.55;51.23;103487.13;5126777;27;20117;-36
2023/01/22 07:30:09;;;;;;;4.63;3.03;;;;;;;13.55;51.35;103495.09;5125084;27;20090;-36
2023/01/22 07:32:36;;;;;;;5.55;2.95;;;;;;;13.55;51.09;103495.97;5124708;27;20130;-36
2023/01/22 07:35:03;;;;;;;4.38;2.65;;;;;;;13.53;51.20;103489.81;5125656;27;20050;-39
2023/01/22 07:37:29;;;;;;;4.00;2.50;;;;;;;13.54;51.09;103501.34;5127614;27;20050;-36
2023/01/22 07:39:56;;;;;;;3.35;2.35;;;;;;;13.55;51.44;103503.09;5124486;27;20056;-36
2023/01/22 07:42:22;;;;;;;3.53;2.45;;;;;;;13.54;51.13;103498.69;5125035;27;20052;-36
2023/01/22 07:44:49;;;;;;;4.40;2.70;;;;;;;13.54;51.47;103496.00;5126871;27;20047;-36
2023/01/22 07:47:15;;;;;;;3.58;2.10;;;;;;;13.54;51.17;103499.53;5125948;27;20419;-36
2023/01/22 07:49:42;;;;;;;3.88;2.60;;;;;;;13.55;51.15;103501.31;5127297;27;20057;-36
2023/01/22 07:52:08;;;;;;;3.05;2.20;;;;;;;13.56;51.23;103510.16;5129308;27;20047;-36
2023/01/22 07:54:35;;;;;;;3.25;2.30;;;;;;;13.55;51.19;103509.28;5126570;27;20053;-36
2023/01/22 07:57:03;;;;;;;4.35;2.00;;;;;;;13.57;51.02;103517.22;5126258;27;20132;-36
2023/01/22 07:59:29;;;;;;;3.80;2.47;;;;;;;13.58;51.07;103521.63;5126945;27;20043;-39
2023/01/22 08:01:56;;;;;;;2.80;2.08;;;;;;;13.58;51.33;103526.94;5126437;27;20044;-35
2023/01/22 08:04:23;;;;;;;4.20;2.50;;;;;;;13.57;50.78;103525.22;5127021;27;20511;-37
2023/01/22 08:06:50;;;;;;;3.95;2.30;;;;;;;13.57;51.41;103520.75;5129434;27;20039;-36
2023/01/22 08:09:23;;;;;;;3.20;2.15;;;;;;;13.57;51.36;103517.22;5120476;27;20093;-36
2023/01/22 08:11:51;;;;;;;3.50;2.30;;;;;;;13.56;51.15;103527.00;5126424;27;20116;-36
2023/01/22 08:14:18;;;;;;;3.63;2.25;;;;;;;13.58;51.27;103537.59;5124176;27;20077;-36
2023/01/22 08:16:45;;;;;;;2.83;1.95;;;;;;;13.58;51.16;103537.59;5120872;27;20074;-36
2023/01/22 08:19:12;;;;;;;2.75;1.92;;;;;;;13.58;50.96;103537.59;5123268;27;20047;-36
2023/01/22 08:21:39;;;;;;;3.00;2.03;;;;;;;13.56;51.20;103540.34;5122815;27;20043;-36
2023/01/22 08:24:07;;;;;;;3.17;2.13;;;;;;;13.56;50.57;103543.00;5125658;27;20071;-36
2023/01/22 08:26:33;;;;;;;3.88;2.25;;;;;;;13.56;50.80;103539.47;5123308;27;20081;-36
2023/01/22 08:29:00;;;;;;;2.60;2.08;;;;;;;13.56;51.23;103548.34;5124293;27;20063;-37
2023/01/22 08:31:32;;;;;;;3.13;1.90;;;;;;;13.57;51.30;103543.88;5124122;27;20126;-36
2023/01/22 08:33:59;;;;;;;3.25;1.95;;;;;;;13.57;51.13;103541.19;5120912;27;20405;-39
2023/01/22 08:36:26;;;;;;;3.20;2.15;;;;;;;13.58;51.61;103529.59;5123109;27;20039;-36
2023/01/22 08:38:53;;;;;;;3.20;1.83;;;;;;;13.57;51.17;103533.22;5120683;27;20070;-36
2023/01/22 08:41:20;;;;;;;3.03;2.08;;;;;;;13.56;51.23;103540.34;5122885;27;20148;-36
2023/01/22 08:43:46;;;;;;;2.38;1.98;;;;;;;13.55;51.29;103538.59;5120558;27;20504;-36
2023/01/22 08:46:13;;;;;;;5.05;2.20;;;;;;;13.57;51.26;103535.88;5123823;27;20249;-36
2023/01/22 08:48:42;;;;;;;2.65;1.95;;;;;;;13.57;51.40;103533.22;5123245;27;20049;-36
2023/01/22 08:51:10;;;;;;;3.15;1.85;;;;;;;13.56;51.64;103543.00;5124807;27;20130;-36
2023/01/22 08:53:37;;;;;;;3.28;2.00;;;;;;;13.58;51.20;103534.94;5123127;27;20048;-37
2023/01/22 08:56:04;;;;;;;3.78;2.10;;;;;;;13.58;51.54;103534.94;5124337;27;20082;-35
2023/01/22 08:58:30;;;;;;;2.92;1.70;;;;;;;13.58;51.20;103542.94;5122868;27;20065;-36
2023/01/22 09:00:57;;;;;;;2.60;1.70;;;;;;;13.58;51.46;103541.13;5122697;27;20047;-36
2023/01/22 09:03:23;;;;;;;2.97;1.67;;;;;;;13.60;51.75;103542.91;5121479;27;20153;-36
2023/01/22 09:05:50;;;;;;;3.05;2.08;;;;;;;13.60;51.28;103548.22;5124671;27;20051;-36
2023/01/22 09:08:17;;;;;;;2.72;2.00;;;;;;;13.59;51.33;103555.34;5119986;27;20456;-36
2023/01/22 09:10:43;;;;;;;3.35;2.10;;;;;;;13.60;51.51;103556.22;5125783;27;20044;-36
2023/01/22 09:13:10;;;;;;;3.65;2.03;;;;;;;13.60;51.34;103553.56;5123157;27;20057;-36
2023/01/22 09:15:38;;;;;;;3.25;2.03;;;;;;;13.57;51.21;103552.72;5126126;27;20077;-36
2023/01/22 09:18:05;;;;;;;4.60;2.65;;;;;;;13.59;51.53;103563.34;5122779;27;20062;-36
2023/01/22 09:20:32;;;;;;;5.75;3.05;;;;;;;13.58;51.30;103557.13;5123651;27;20058;-37
2023/01/22 09:22:59;;;;;;;4.30;2.60;;;;;;;13.58;51.07;103557.13;5124317;27;20043;-36
2023/01/22 09:25:25;;;;;;;5.88;3.70;;;;;;;13.58;51.23;103564.25;5121886;27;20140;-36
2023/01/22 09:28:03;;;;;;;8.10;4.20;;;;;;;13.58;51.47;103558.91;5124360;27;20051;-40
2023/01/22 09:30:31;;;;;;;6.95;3.70;;;;;;;13.60;51.13;103569.53;5090133;28;20123;-36
2023/01/22 09:32:57;;;;;;;6.88;3.92;;;;;;;13.59;51.45;103558.00;5088270;28;20059;-39
2023/01/22 09:35:26;;;;;;;6.72;3.70;;;;;;;13.58;51.15;103553.59;5091924;28;20050;-36
2023/01/22 09:37:53;;;;;;;7.00;4.25;;;;;;;13.59;51.01;103558.00;5092915;28;20082;-36
2023/01/22 09:40:31;;;;;;;7.70;4.43;;;;;;;13.58;51.08;103550.94;5091225;28;20344;-36
2023/01/22 09:43:06;;;;;;;8.68;4.90;;;;;;;13.58;51.28;103557.13;5092969;28;20123;-36
2023/01/22 09:45:37;;;;;;;9.00;4.63;;;;;;;13.60;51.54;103553.56;5091089;28;20060;-36
2023/01/22 09:48:10;;;;;;;8.73;4.75;;;;;;;13.59;51.38;103563.34;5092562;28;20048;-36
2023/01/22 09:50:38;;;;;;;10.23;5.37;;;;;;;13.60;51.05;103558.88;5091744;28;20048;-36
2023/01/22 09:53:11;;;;;;;8.82;4.72;;;;;;;13.60;51.39;103565.06;5087528;28;20071;-36
2023/01/22 09:55:43;;;;;;;8.70;5.15;;;;;;;13.60;51.39;103554.41;5089399;28;20055;-34
2023/01/22 09:58:15;;;;;;;9.85;5.13;;;;;;;13.62;51.46;103546.34;5093639;28;20465;-34
2023/01/22 10:00:49;;;;;;;10.48;5.18;;;;;;;13.61;51.32;103556.16;5088062;28;20450;-34
2023/01/22 10:03:30;;;;;;;8.93;5.00;;;;;;;13.62;51.28;103557.88;5090299;28;20051;-37
2023/01/22 10:06:07;;;;;;;9.80;5.45;;;;;;;13.64;51.62;103558.69;5083634;28;20116;-34
2023/01/22 10:09:00;;;;;;;9.98;5.53;;;;;;;13.65;51.54;103557.75;5080653;28;20055;-35
2023/01/22 10:11:27;;;;;;;12.20;6.30;;;;;;;13.67;51.58;103550.59;5081591;28;20040;-37
2023/01/22 10:13:57;;;;;;;12.13;6.55;;;;;;;13.70;51.58;103554.91;5091450;28;20135;-35
2023/01/22 10:16:24;;;;;;;10.68;6.18;;;;;;;13.72;51.42;103553.09;5086703;28;20427;-34
2023/01/22 10:18:57;;;;;;;11.15;5.78;;;;;;;13.75;51.50;103568.97;5089161;28;20085;-35
2023/01/22 10:21:30;;;;;;;9.82;5.65;;;;;;;13.77;51.45;103561.75;5087378;28;20044;-35
2023/01/22 10:23:57;;;;;;;10.50;5.55;;;;;;;13.79;51.31;103568.78;5088651;28;20507;-35
2023/01/22 10:26:31;;;;;;;10.00;5.70;;;;;;;13.80;51.12;103573.19;5089346;28;20430;-35
2023/01/22 10:29:04;;;;;;;9.98;5.82;;;;;;;13.82;51.41;103562.44;5102876;27;20094;-35
2023/01/22 10:31:36;;;;;;;11.00;5.82;;;;;;;13.82;51.63;103560.63;5123543;27;20039;-35
2023/01/22 10:34:11;;;;;;;10.88;6.10;;;;;;;13.84;51.40;103557.94;5121285;27;20051;-35
2023/01/22 10:36:38;;;;;;;12.02;6.47;;;;;;;13.86;51.05;103564.06;5118240;27;20051;-35
2023/01/22 10:39:13;;;;;;;11.80;6.18;;;;;;;13.88;51.16;103570.22;5122258;27;20043;-35
2023/01/22 10:41:41;;;;;;;13.65;7.72;;;;;;;13.93;51.06;103567.38;5124504;27;20040;-36
2023/01/22 10:44:28;;;;;;;13.50;7.30;;;;;;;13.96;51.30;103562.78;5120751;27;20517;-35
2023/01/22 10:47:05;;;;;;;15.30;7.78;;;;;;;14.00;51.02;103561.75;5120177;27;20171;-35
2023/01/22 10:49:32;;;;;;;17.15;8.13;;;;;;;14.04;51.89;103558.03;5120500;27;20057;-35
2023/01/22 10:52:05;;;;;;;13.80;7.70;;;;;;;14.08;51.66;103562.31;5128780;28;20050;-36
2023/01/22 10:54:39;;;;;;;15.55;7.85;;;;;;;14.12;51.65;103559.53;5127251;28;20085;-36
2023/01/22 10:57:17;;;;;;;15.10;8.23;;;;;;;14.16;51.59;103554.00;5128277;28;20054;-36
2023/01/22 10:59:51;;;;;;;15.98;8.05;;;;;;;14.18;51.90;103548.59;5123716;27;20488;-35
2023/01/22 11:02:22;;;;;;;13.95;8.10;;;;;;;14.22;51.33;103553.72;5121237;28;20048;-35
2023/01/22 11:04:50;;;;;;;14.82;8.15;;;;;;;14.23;51.03;103551.94;5118869;28;20427;-35
2023/01/22 11:07:37;;;;;;;16.35;8.82;;;;;;;14.24;51.34;103549.22;5122665;28;20057;-35
2023/01/22 11:10:30;;;;;;;14.65;8.10;;;;;;;14.24;50.42;103553.69;5122369;27;20055;-36
2023/01/22 11:13:06;;;;;;;14.23;8.20;;;;;;;14.26;51.49;103535.81;5123233;28;20054;-37
2023/01/22 11:15:54;;;;;;;15.38;8.65;;;;;;;14.27;51.65;103543.75;5121063;28;20346;-36
2023/01/22 11:18:48;;;;;;;18.63;10.02;;;;;;;14.30;51.37;103540.09;5117913;27;20043;-35
2023/01/22 11:21:18;;;;;;;16.73;9.50;;;;;;;14.32;51.69;103528.44;5121350;28;20058;-34
2023/01/22 11:23:58;;;;;;;15.18;8.85;;;;;;;14.33;51.46;103524.81;5118514;28;20350;-34
2023/01/22 11:26:47;;;;;;;15.98;8.48;;;;;;;14.36;50.75;103529.16;5120817;28;20054;-34
2023/01/22 11:29:32;;;;;;;17.85;9.73;;;;;;;14.38;51.56;103524.63;5119985;28;20560;-34
2023/01/22 11:32:21;;;;;;;15.75;9.32;;;;;;;14.39;50.75;103521.03;5121547;28;20126;-38
2023/01/22 11:35:03;;;;;;;16.65;8.88;;;;;;;14.39;51.12;103514.81;5121929;28;20046;-34